Terminal Aerodrome Forecast
Issued by NWS Norman, OK

Home | Current Version | Previous Version | Text Only | Print | Product List | Glossary On
Versions: 1 2 3 4 5 6 7 8 9 10 11 12 13 14 15
086
FTUS44 KOUN 221133
TAFSPS
TAF
KSPS 221133Z 2212/2312 11007KT 4SM -TSRA BR SCT008 OVC011CB
      TEMPO 2212/2214 2SM +SHRA BKN008
     FM221400 13009KT 5SM BR VCSH OVC007
     FM221700 13010KT 3SM BR OVC005=

USA.gov is the U.S. government's official web portal to all federal, state and local government web resources and services.